Time;durP1;ratioP1;P1;durP2;ratioP2;P2;SDS_P1;SDS_P2;PMS_P1;PMS_P2;Temp;Humidity;BMP_temperature;BMP_pressure;BME280_temperature;BME280_humidity;BME280_pressure;Samples;Min_cycle;Max_cycle;Signal;HPM_P1;HPM_P2
2023/03/03 00:00:58;;;;;;;27.08;13.63;;;2.10;99.90;;;;;;6305185;22;20061;-85
2023/03/03 00:03:25;;;;;;;24.33;12.77;;;2.10;99.90;;;;;;6277714;22;20015;-86
2023/03/03 00:05:52;;;;;;;23.25;12.30;;;2.10;99.90;;;;;;6279028;22;20019;-85
2023/03/03 00:08:19;;;;;;;24.27;13.05;;;2.00;99.90;;;;;;6305804;22;20336;-86
2023/03/03 00:10:45;;;;;;;23.25;12.18;;;2.00;99.90;;;;;;6305730;22;20012;-86
2023/03/03 00:13:17;;;;;;;23.83;13.38;;;2.00;99.90;;;;;;6305780;22;20343;-86
2023/03/03 00:15:43;;;;;;;33.20;15.15;;;2.00;99.90;;;;;;6277551;22;20018;-86
2023/03/03 00:18:24;;;;;;;27.08;14.23;;;2.00;99.90;;;;;;6305857;22;20027;-86
2023/03/03 00:20:59;;;;;;;25.35;11.63;;;2.00;99.90;;;;;;6278495;22;20034;-85
2023/03/03 00:23:37;;;;;;;29.48;13.18;;;2.00;99.90;;;;;;6277727;22;20015;-85
2023/03/03 00:26:22;;;;;;;29.00;14.50;;;2.00;99.90;;;;;;6306016;22;20018;-85
2023/03/03 00:28:55;;;;;;;26.20;15.38;;;2.00;99.90;;;;;;6305972;22;20009;-85
2023/03/03 00:31:39;;;;;;;27.45;13.65;;;2.00;99.90;;;;;;6277225;22;20015;-85
2023/03/03 00:34:18;;;;;;;25.52;13.18;;;2.00;99.90;;;;;;6278369;22;20371;-85
2023/03/03 00:36:45;;;;;;;23.65;11.85;;;2.00;99.90;;;;;;6278457;22;20092;-85
2023/03/03 00:39:32;;;;;;;23.95;11.93;;;2.00;99.90;;;;;;6305571;22;20011;-85
2023/03/03 00:41:59;;;;;;;23.25;11.00;;;2.10;99.90;;;;;;6278098;22;20015;-85
2023/03/03 00:44:44;;;;;;;24.83;12.85;;;2.10;99.90;;;;;;6277033;22;20399;-86
2023/03/03 00:47:36;;;;;;;23.85;12.77;;;2.10;99.90;;;;;;6305882;22;20103;-86
2023/03/03 00:50:05;;;;;;;27.80;14.48;;;2.10;99.90;;;;;;6277911;22;20023;-86
2023/03/03 00:52:35;;;;;;;27.00;12.48;;;2.10;99.90;;;;;;6277456;22;20019;-86
2023/03/03 00:55:01;;;;;;;25.48;11.95;;;2.10;99.90;;;;;;6277471;22;20011;-86
2023/03/03 00:57:27;;;;;;;30.40;13.88;;;2.10;99.90;;;;;;6305109;22;20015;-87
2023/03/03 00:59:52;;;;;;;27.17;14.00;;;2.10;99.90;;;;;;6277608;22;20352;-86
2023/03/03 01:02:18;;;;;;;25.15;12.27;;;2.10;99.90;;;;;;6277590;22;20015;-86
2023/03/03 01:04:49;;;;;;;24.55;13.88;;;2.10;99.90;;;;;;6277905;22;20019;-85
2023/03/03 01:07:15;;;;;;;;;;;2.10;99.90;;;;;;6305176;22;20436;-85
2023/03/03 01:09:41;;;;;;;27.48;12.15;;;2.10;99.90;;;;;;6277874;22;19930;-86
2023/03/03 01:12:06;;;;;;;30.70;14.25;;;2.10;99.90;;;;;;6277720;22;20317;-85
2023/03/03 01:14:33;;;;;;;31.70;14.93;;;2.10;99.90;;;;;;6304360;22;20474;-86
2023/03/03 01:16:58;;;;;;;26.27;13.75;;;2.10;99.90;;;;;;6305538;22;20017;-85
2023/03/03 01:19:24;;;;;;;29.85;14.82;;;2.10;99.90;;;;;;6276947;22;20090;-86
2023/03/03 01:21:50;;;;;;;32.58;17.42;;;2.10;99.90;;;;;;6305622;22;20061;-85
2023/03/03 01:24:15;;;;;;;29.77;15.10;;;2.10;99.90;;;;;;6251823;22;20043;-85
2023/03/03 01:26:41;;;;;;;29.77;14.25;;;2.10;99.90;;;;;;6304952;22;20451;-85
2023/03/03 01:29:08;;;;;;;29.38;15.20;;;2.20;99.90;;;;;;6277437;22;20417;-86
2023/03/03 01:31:33;;;;;;;32.60;15.27;;;2.20;99.90;;;;;;6277025;22;20021;-85
2023/03/03 01:33:59;;;;;;;31.63;15.85;;;2.20;99.90;;;;;;6277760;22;20042;-85
2023/03/03 01:36:27;;;;;;;33.78;15.45;;;2.20;99.90;;;;;;6304243;22;20011;-85
2023/03/03 01:38:53;;;;;;;32.67;16.52;;;2.20;99.90;;;;;;6305214;22;20015;-85
2023/03/03 01:41:18;;;;;;;29.90;16.55;;;2.20;99.90;;;;;;6304729;22;20008;-86
2023/03/03 01:43:46;;;;;;;30.85;16.13;;;2.20;99.90;;;;;;6277104;22;20016;-86
2023/03/03 01:46:27;;;;;;;38.03;16.27;;;2.20;99.90;;;;;;6277184;22;20321;-86
2023/03/03 01:49:01;;;;;;;30.10;14.38;;;2.20;99.90;;;;;;6277391;22;20068;-85
2023/03/03 01:51:44;;;;;;;38.10;17.38;;;2.20;99.90;;;;;;6303943;22;20428;-86
2023/03/03 01:54:17;;;;;;;30.85;15.98;;;2.20;99.90;;;;;;6277531;22;20011;-85
2023/03/03 01:56:43;;;;;;;34.42;15.40;;;2.20;99.90;;;;;;6277142;22;20042;-85
2023/03/03 01:59:18;;;;;;;34.42;16.23;;;2.20;99.90;;;;;;6277267;22;20015;-86
2023/03/03 02:01:45;;;;;;;38.60;15.82;;;2.20;99.90;;;;;;6305186;22;20060;-85
2023/03/03 02:04:12;;;;;;;36.40;16.58;;;2.10;99.90;;;;;;6251576;22;20023;-85
2023/03/03 02:06:40;;;;;;;34.97;15.02;;;2.20;99.90;;;;;;6304500;22;20039;-85
2023/03/03 02:09:29;;;;;;;36.08;17.13;;;2.20;99.90;;;;;;6277329;22;20015;-86
2023/03/03 02:12:00;;;;;;;42.22;19.02;;;2.20;99.90;;;;;;6303731;22;20060;-86
2023/03/03 02:14:25;;;;;;;35.60;14.98;;;2.20;99.90;;;;;;6276621;22;20051;-85
2023/03/03 02:16:51;;;;;;;40.58;18.83;;;2.20;99.90;;;;;;6277287;22;20072;-86
2023/03/03 02:19:34;;;;;;;32.25;14.75;;;2.20;99.90;;;;;;6276876;22;20011;-85
2023/03/03 02:22:01;;;;;;;33.28;15.05;;;2.20;99.90;;;;;;6305038;22;20047;-85
2023/03/03 02:24:37;;;;;;;40.05;15.75;;;2.20;99.90;;;;;;6304280;22;20011;-85
2023/03/03 02:27:03;;;;;;;41.78;16.17;;;2.30;99.90;;;;;;6276178;22;20015;-85
2023/03/03 02:29:29;;;;;;;36.85;13.10;;;2.20;99.90;;;;;;6304370;22;20086;-86
2023/03/03 02:31:54;;;;;;;30.45;14.68;;;2.30;99.90;;;;;;6304749;22;20018;-86
2023/03/03 02:34:20;;;;;;;33.88;15.55;;;2.30;99.90;;;;;;6276794;22;20010;-85
2023/03/03 02:36:45;;;;;;;39.58;15.68;;;2.30;99.90;;;;;;6304855;22;20460;-85
2023/03/03 02:39:23;;;;;;;41.30;15.45;;;2.30;99.90;;;;;;6276836;22;20015;-86
2023/03/03 02:42:11;;;;;;;37.92;14.25;;;2.30;99.90;;;;;;6276588;22;20011;-85
2023/03/03 02:44:38;;;;;;;35.15;13.38;;;2.30;99.90;;;;;;6276618;22;20510;-85
2023/03/03 02:47:04;;;;;;;29.23;11.63;;;2.40;99.90;;;;;;6304296;22;20336;-85
2023/03/03 02:49:32;;;;;;;32.20;11.52;;;2.40;99.90;;;;;;6303668;22;20050;-85
2023/03/03 02:51:59;;;;;;;44.38;12.73;;;2.40;99.90;;;;;;6304904;22;20052;-85
2023/03/03 02:54:27;;;;;;;55.35;12.57;;;2.40;99.90;;;;;;6304154;22;20007;-86
2023/03/03 02:56:52;;;;;;;34.63;13.43;;;2.40;99.90;;;;;;6304059;22;20026;-85
2023/03/03 02:59:18;;;;;;;35.47;12.25;;;2.40;99.90;;;;;;6277590;22;20011;-86
2023/03/03 03:01:45;;;;;;;42.53;13.20;;;2.40;99.90;;;;;;6277418;22;20321;-85
2023/03/03 03:04:14;;;;;;;64.70;15.18;;;2.40;99.90;;;;;;6304891;22;20018;-85
2023/03/03 03:06:40;;;;;;;65.45;14.70;;;2.30;99.90;;;;;;6277303;22;20341;-86
2023/03/03 03:09:07;;;;;;;60.92;14.48;;;2.40;99.90;;;;;;6277786;22;20015;-86
2023/03/03 03:11:37;;;;;;;30.58;11.98;;;2.40;99.90;;;;;;6302793;22;20015;-86
2023/03/03 03:14:04;;;;;;;31.95;11.13;;;2.40;99.90;;;;;;6276793;22;20023;-85
2023/03/03 03:16:32;;;;;;;43.42;11.95;;;2.40;99.90;;;;;;6250673;22;20007;-85
2023/03/03 03:18:59;;;;;;;30.42;10.95;;;2.40;99.90;;;;;;6276389;22;20079;-85
2023/03/03 03:21:25;;;;;;;30.38;11.27;;;2.40;99.90;;;;;;6276223;22;20011;-85
2023/03/03 03:23:51;;;;;;;71.22;17.27;;;2.30;99.90;;;;;;6303735;22;20022;-85
2023/03/03 03:26:19;;;;;;;33.25;12.07;;;2.30;99.90;;;;;;6276712;22;20007;-85
2023/03/03 03:28:45;;;;;;;36.42;11.57;;;2.40;99.90;;;;;;6303724;22;20551;-86
2023/03/03 03:31:11;;;;;;;52.67;13.20;;;2.40;99.90;;;;;;6304025;22;20309;-86
2023/03/03 03:33:37;;;;;;;39.50;12.23;;;2.40;99.90;;;;;;6276263;22;20012;-85
2023/03/03 03:36:05;;;;;;;30.00;9.93;;;2.40;99.90;;;;;;6276715;22;20007;-86
2023/03/03 03:38:32;;;;;;;51.05;13.15;;;2.40;99.90;;;;;;6302618;22;20041;-85
2023/03/03 03:40:58;;;;;;;36.15;12.77;;;2.40;99.90;;;;;;6304119;22;20023;-85
2023/03/03 03:43:24;;;;;;;77.10;15.23;;;2.40;99.90;;;;;;6303390;22;20301;-85
2023/03/03 03:45:50;;;;;;;62.53;13.90;;;2.40;99.90;;;;;;6304171;22;20035;-86
2023/03/03 03:48:18;;;;;;;43.05;11.70;;;2.40;99.90;;;;;;6276078;22;20463;-85
2023/03/03 03:50:44;;;;;;;68.40;15.18;;;2.50;99.90;;;;;;6304411;22;20004;-85
2023/03/03 03:53:09;;;;;;;48.70;11.88;;;2.50;99.90;;;;;;6303896;22;20424;-86
2023/03/03 03:55:35;;;;;;;77.10;15.88;;;2.50;99.90;;;;;;6303579;22;20011;-85
2023/03/03 03:58:00;;;;;;;49.13;13.90;;;2.50;99.90;;;;;;6304002;22;20061;-85
2023/03/03 04:00:26;;;;;;;53.88;13.68;;;2.50;99.90;;;;;;6275572;22;20094;-86
2023/03/03 04:02:52;;;;;;;120.88;19.73;;;2.50;99.90;;;;;;6303828;22;20027;-85
2023/03/03 04:05:18;;;;;;;105.28;19.73;;;2.50;99.90;;;;;;6303828;22;20316;-85
2023/03/03 04:07:44;;;;;;;85.60;19.90;;;2.50;99.90;;;;;;6275750;22;20314;-85
2023/03/03 04:10:10;;;;;;;40.92;14.02;;;2.50;99.90;;;;;;6303806;22;20086;-85
2023/03/03 04:12:39;;;;;;;53.08;15.98;;;2.50;99.90;;;;;;6276392;22;20015;-86
2023/03/03 04:15:09;;;;;;;55.20;16.88;;;2.50;99.90;;;;;;6303995;22;20011;-85
2023/03/03 04:17:35;;;;;;;67.65;17.23;;;2.50;99.90;;;;;;6303246;22;20338;-85
2023/03/03 04:20:02;;;;;;;74.90;17.27;;;2.60;99.90;;;;;;6304014;22;20022;-85
2023/03/03 04:22:31;;;;;;;59.08;16.85;;;2.60;99.90;;;;;;6302867;22;20007;-85
2023/03/03 04:24:56;;;;;;;82.38;16.85;;;2.60;99.90;;;;;;6276171;22;20011;-85
2023/03/03 04:27:22;;;;;;;44.00;13.45;;;2.60;99.90;;;;;;6303109;22;20018;-85
2023/03/03 04:29:48;;;;;;;69.00;16.35;;;2.60;99.90;;;;;;6305098;22;20004;-85
2023/03/03 04:32:13;;;;;;;96.85;16.92;;;2.60;99.90;;;;;;6277581;22;20015;-85
2023/03/03 04:34:39;;;;;;;67.82;16.10;;;2.60;99.90;;;;;;6305484;22;20448;-85
2023/03/03 04:37:05;;;;;;;58.42;15.50;;;2.60;99.90;;;;;;6305275;22;20016;-85
2023/03/03 04:39:30;;;;;;;55.92;14.05;;;2.60;99.90;;;;;;6304631;22;20341;-85
2023/03/03 04:41:56;;;;;;;77.03;14.95;;;2.70;99.90;;;;;;6278035;22;20030;-85
2023/03/03 04:44:21;;;;;;;84.70;16.52;;;2.70;99.90;;;;;;6277426;22;20095;-85
2023/03/03 04:46:47;;;;;;;99.25;19.60;;;2.60;99.90;;;;;;6305515;22;20011;-85
2023/03/03 04:49:12;;;;;;;84.93;16.02;;;2.70;99.90;;;;;;6305323;22;20069;-85
2023/03/03 04:51:38;;;;;;;120.65;18.67;;;2.70;99.90;;;;;;6277334;22;20447;-85
2023/03/03 04:54:04;;;;;;;72.38;14.77;;;2.60;99.90;;;;;;6278246;22;20467;-85
2023/03/03 04:56:30;;;;;;;53.80;12.10;;;2.60;99.90;;;;;;6304976;22;20015;-85
2023/03/03 04:58:56;;;;;;;64.13;13.25;;;2.60;99.90;;;;;;6305654;22;20011;-85
2023/03/03 05:01:22;;;;;;;52.08;14.13;;;2.60;99.90;;;;;;6277285;22;20018;-85
2023/03/03 05:03:48;;;;;;;81.85;17.23;;;2.70;99.90;;;;;;6305644;22;20011;-85
2023/03/03 05:06:13;;;;;;;70.90;12.98;;;2.70;99.90;;;;;;6304581;22;20436;-85
2023/03/03 05:08:39;;;;;;;123.95;18.20;;;2.60;99.90;;;;;;6277988;22;20015;-85
2023/03/03 05:11:05;;;;;;;74.57;12.75;;;2.60;99.90;;;;;;6277646;22;20095;-85
2023/03/03 05:13:30;;;;;;;46.75;10.25;;;2.60;99.90;;;;;;6277251;22;20115;-85
2023/03/03 05:15:56;;;;;;;256.90;40.28;;;2.70;99.90;;;;;;6277829;22;20488;-85
2023/03/03 05:18:23;;;;;;;70.53;11.75;;;2.70;99.90;;;;;;6277216;22;20345;-85
2023/03/03 05:20:50;;;;;;;57.38;11.20;;;2.60;99.90;;;;;;6304642;22;20369;-85
2023/03/03 05:23:16;;;;;;;119.95;16.55;;;2.70;99.90;;;;;;6305166;22;20015;-85
2023/03/03 05:25:42;;;;;;;100.88;15.70;;;2.60;99.90;;;;;;6277665;22;20003;-85
2023/03/03 05:28:09;;;;;;;127.28;18.38;;;2.60;99.90;;;;;;6305673;22;20371;-85
2023/03/03 05:30:36;;;;;;;76.40;12.60;;;2.60;99.90;;;;;;6305012;22;20011;-85
2023/03/03 05:33:02;;;;;;;50.20;11.35;;;2.60;99.90;;;;;;6305647;22;20325;-85
2023/03/03 05:35:28;;;;;;;91.32;14.45;;;2.60;99.90;;;;;;6304160;22;20004;-85
2023/03/03 05:37:54;;;;;;;35.17;9.10;;;2.60;99.90;;;;;;6277941;22;20057;-85
2023/03/03 05:40:20;;;;;;;51.78;12.07;;;2.60;99.90;;;;;;6277286;22;20007;-85
2023/03/03 05:42:45;;;;;;;39.70;9.40;;;2.60;99.90;;;;;;6305592;22;20379;-85
2023/03/03 05:45:12;;;;;;;97.25;14.10;;;2.60;99.90;;;;;;6277539;22;20311;-85
2023/03/03 05:47:37;;;;;;;65.28;11.27;;;2.60;99.90;;;;;;6277361;22;20023;-85
2023/03/03 05:50:04;;;;;;;75.50;12.82;;;2.60;99.90;;;;;;6277319;22;20317;-85
2023/03/03 05:52:29;;;;;;;36.85;10.30;;;2.60;99.90;;;;;;6304766;22;20078;-85
2023/03/03 05:54:56;;;;;;;69.97;12.50;;;2.60;99.90;;;;;;6277678;22;20096;-85
2023/03/03 05:57:22;;;;;;;68.85;13.20;;;2.60;99.90;;;;;;6304525;22;20376;-85
2023/03/03 05:59:47;;;;;;;98.90;14.05;;;2.60;99.90;;;;;;6305216;22;20360;-85
2023/03/03 06:02:13;;;;;;;101.35;17.50;;;2.60;99.90;;;;;;6304725;22;20037;-85
2023/03/03 06:04:39;;;;;;;37.40;10.00;;;2.60;99.90;;;;;;6276564;22;20120;-85
2023/03/03 06:07:05;;;;;;;60.30;13.77;;;2.60;99.90;;;;;;6305290;22;20022;-85
2023/03/03 06:09:31;;;;;;;121.63;17.67;;;2.60;99.90;;;;;;6276890;22;20383;-85
2023/03/03 06:11:57;;;;;;;82.18;14.75;;;2.60;99.90;;;;;;6304818;22;20041;-85
2023/03/03 06:14:23;;;;;;;82.90;14.65;;;2.60;99.90;;;;;;6276826;22;20007;-85
2023/03/03 06:16:49;;;;;;;74.85;12.15;;;2.60;99.90;;;;;;6252112;22;20015;-85
2023/03/03 06:19:15;;;;;;;55.42;12.38;;;2.60;99.90;;;;;;6304170;22;20357;-85
2023/03/03 06:21:41;;;;;;;45.03;10.57;;;2.60;99.90;;;;;;6277183;22;20015;-85
2023/03/03 06:24:07;;;;;;;35.50;11.20;;;2.60;99.90;;;;;;6305096;22;20012;-85
2023/03/03 06:26:33;;;;;;;66.72;12.82;;;2.60;99.90;;;;;;6304333;22;20088;-85
2023/03/03 06:28:59;;;;;;;113.45;15.73;;;2.60;99.90;;;;;;6304998;22;20011;-85
2023/03/03 06:31:26;;;;;;;70.07;12.38;;;2.60;99.90;;;;;;6276839;22;20090;-85
2023/03/03 06:33:51;;;;;;;39.70;10.02;;;2.60;99.90;;;;;;6276525;22;20088;-85
2023/03/03 06:36:18;;;;;;;130.70;16.48;;;2.60;99.90;;;;;;6276607;22;20479;-85
2023/03/03 06:38:43;;;;;;;67.20;12.77;;;2.50;99.90;;;;;;6304844;22;20011;-85
2023/03/03 06:41:09;;;;;;;122.97;19.02;;;2.60;99.90;;;;;;6304582;22;20008;-85
2023/03/03 06:43:36;;;;;;;51.17;10.27;;;2.50;99.90;;;;;;6251100;22;20010;-85
2023/03/03 06:46:03;;;;;;;89.70;13.60;;;2.50;99.90;;;;;;6305112;22;20099;-85
2023/03/03 06:48:29;;;;;;;82.65;12.45;;;2.50;99.90;;;;;;6303327;22;20061;-85
2023/03/03 06:50:56;;;;;;;66.75;10.70;;;2.50;99.90;;;;;;6304651;22;20018;-85
2023/03/03 06:53:21;;;;;;;130.73;17.05;;;2.50;99.90;;;;;;6303348;22;20047;-85
2023/03/03 06:55:47;;;;;;;170.13;20.88;;;2.50;99.90;;;;;;6276963;22;20034;-85
2023/03/03 06:58:15;;;;;;;63.00;12.35;;;2.50;99.90;;;;;;6304056;22;20011;-86
2023/03/03 07:01:08;;;;;;;60.38;11.15;;;2.50;99.90;;;;;;6276570;22;20344;-85
2023/03/03 07:03:34;;;;;;;135.43;18.63;;;2.60;99.90;;;;;;6274855;22;20447;-85
2023/03/03 07:06:01;;;;;;;171.20;19.00;;;2.60;99.90;;;;;;6304375;22;20407;-85
2023/03/03 07:08:30;;;;;;;121.88;16.10;;;2.70;99.90;;;;;;6276134;22;20060;-85
2023/03/03 07:11:01;;;;;;;174.02;19.67;;;2.70;99.90;;;;;;6276578;22;20012;-85
2023/03/03 07:13:28;;;;;;;66.93;9.40;;;2.70;99.90;;;;;;6276208;22;20043;-84
2023/03/03 07:15:57;;;;;;;81.30;10.77;;;2.70;99.90;;;;;;6303879;22;20017;-85
2023/03/03 07:18:23;;;;;;;48.05;9.48;;;2.70;99.90;;;;;;6275878;22;20023;-85
2023/03/03 07:20:49;;;;;;;42.45;8.52;;;2.80;99.90;;;;;;6276749;22;20019;-85
2023/03/03 07:23:19;;;;;;;62.90;11.15;;;2.90;99.90;;;;;;6276205;22;20018;-85
2023/03/03 07:25:45;;;;;;;80.90;12.50;;;2.90;99.90;;;;;;6304538;22;20145;-85
2023/03/03 07:28:23;;;;;;;98.30;15.55;;;2.90;99.90;;;;;;6303808;22;20452;-85
2023/03/03 07:30:48;;;;;;;57.53;10.48;;;3.00;99.90;;;;;;6303734;22;20007;-84
2023/03/03 07:33:24;;;;;;;63.47;11.93;;;3.00;99.90;;;;;;6303916;22;20065;-85
2023/03/03 07:35:50;;;;;;;37.40;8.80;;;3.00;99.90;;;;;;6251073;22;20456;-85
2023/03/03 07:38:24;;;;;;;55.88;9.48;;;3.00;99.90;;;;;;6276244;22;20064;-85
2023/03/03 07:40:53;;;;;;;101.18;13.23;;;3.00;99.90;;;;;;6276782;22;20090;-85
2023/03/03 07:43:33;;;;;;;66.53;10.57;;;3.00;99.90;;;;;;6275984;22;20007;-85
2023/03/03 07:46:02;;;;;;;33.90;7.57;;;3.00;99.90;;;;;;6303790;22;20011;-85
2023/03/03 07:48:40;;;;;;;38.80;8.55;;;3.10;99.90;;;;;;6275790;22;20051;-85
2023/03/03 07:51:24;;;;;;;144.95;25.92;;;3.10;99.90;;;;;;6304225;22;20014;-85
2023/03/03 07:53:51;;;;;;;27.17;6.78;;;3.20;99.90;;;;;;6276724;22;20047;-84
2023/03/03 07:56:25;;;;;;;55.97;8.02;;;3.10;99.90;;;;;;6276085;22;20026;-84
2023/03/03 07:58:51;;;;;;;40.30;7.50;;;3.10;99.90;;;;;;6250808;22;20375;-85
2023/03/03 08:01:41;;;;;;;30.45;7.20;;;3.10;99.90;;;;;;6275638;22;20117;-84
2023/03/03 08:04:21;;;;;;;32.22;7.65;;;3.20;99.90;;;;;;6304944;22;20011;-85
2023/03/03 08:06:57;;;;;;;53.73;10.33;;;3.20;99.90;;;;;;6278607;22;20042;-84
2023/03/03 08:09:36;;;;;;;41.30;9.20;;;3.20;99.90;;;;;;6305555;22;20273;-85
2023/03/03 08:12:22;;;;;;;117.43;23.08;;;3.30;99.90;;;;;;6305435;22;20048;-85
2023/03/03 08:14:50;;;;;;;40.28;8.40;;;3.30;99.90;;;;;;6277954;22;20023;-85
2023/03/03 08:17:25;;;;;;;19.90;6.00;;;3.20;99.90;;;;;;6277946;22;20018;-85
2023/03/03 08:19:54;;;;;;;13.48;5.43;;;3.20;99.90;;;;;;6278715;22;20022;-85
2023/03/03 08:22:39;;;;;;;14.38;6.15;;;3.20;99.90;;;;;;6277860;22;20500;-85
2023/03/03 08:25:05;;;;;;;26.75;7.15;;;3.30;99.90;;;;;;6305083;22;20011;-85
2023/03/03 08:27:31;;;;;;;25.58;5.93;;;3.30;99.90;;;;;;6304766;22;20026;-84
2023/03/03 08:29:56;;;;;;;22.83;6.43;;;3.40;99.90;;;;;;6305486;22;20026;-85
2023/03/03 08:32:22;;;;;;;28.05;7.38;;;3.40;99.90;;;;;;6277814;22;20322;-85
2023/03/03 08:34:48;;;;;;;56.97;8.93;;;3.50;99.90;;;;;;6278391;22;20022;-85
2023/03/03 08:37:13;;;;;;;42.38;8.73;;;3.50;99.90;;;;;;6278043;22;20011;-85
2023/03/03 08:39:39;;;;;;;139.38;21.33;;;3.50;99.90;;;;;;6305858;22;20361;-85
2023/03/03 08:42:05;;;;;;;37.88;7.38;;;3.50;99.90;;;;;;6278326;22;20079;-85
2023/03/03 08:44:30;;;;;;;74.80;10.30;;;3.50;99.90;;;;;;6304669;22;20019;-85
2023/03/03 08:46:56;;;;;;;14.18;5.80;;;3.50;99.90;;;;;;6278221;22;20038;-85
2023/03/03 08:49:21;;;;;;;19.77;6.72;;;3.50;99.90;;;;;;6304973;22;20011;-85
2023/03/03 08:51:47;;;;;;;25.67;7.80;;;3.60;99.90;;;;;;6278549;22;20065;-85
2023/03/03 08:54:13;;;;;;;17.67;6.45;;;3.70;99.90;;;;;;6305613;22;20082;-84
2023/03/03 08:56:39;;;;;;;20.67;7.72;;;3.80;99.90;;;;;;6305425;22;20021;-85
2023/03/03 08:59:04;;;;;;;36.65;15.80;;;3.90;99.90;;;;;;6305157;22;20012;-85
2023/03/03 09:01:31;;;;;;;52.90;18.30;;;4.10;99.90;;;;;;6277343;22;20029;-84
2023/03/03 09:03:57;;;;;;;37.25;8.57;;;4.20;99.90;;;;;;6252651;22;20056;-85
2023/03/03 09:06:22;;;;;;;25.50;8.32;;;4.20;99.90;;;;;;6305002;22;20004;-85
2023/03/03 09:08:49;;;;;;;23.33;7.47;;;4.30;99.90;;;;;;6278249;22;20341;-85
2023/03/03 09:11:21;;;;;;;28.30;15.68;;;4.40;99.90;;;;;;6277515;22;20051;-85
2023/03/03 09:13:52;;;;;;;27.35;14.20;;;4.70;99.90;;;;;;6305363;22;20026;-85
2023/03/03 09:16:20;;;;;;;19.27;7.25;;;4.80;99.90;;;;;;6277171;22;20053;-85
2023/03/03 09:18:46;;;;;;;31.48;13.43;;;4.80;99.90;;;;;;6305155;22;20050;-85
2023/03/03 09:21:41;;;;;;;23.23;6.75;;;4.80;99.90;;;;;;6305423;22;20007;-85
2023/03/03 09:24:23;;;;;;;21.45;12.73;;;4.70;99.90;;;;;;6273153;22;20018;-85
2023/03/03 09:26:51;;;;;;;20.85;11.95;;;4.60;99.90;;;;;;6277127;22;20408;-85
2023/03/03 09:29:24;;;;;;;23.50;13.63;;;4.60;99.90;;;;;;6251856;22;20014;-85
2023/03/03 09:31:52;;;;;;;12.93;5.28;;;4.60;99.90;;;;;;6277761;22;20650;-85
2023/03/03 09:34:26;;;;;;;14.50;6.22;;;4.40;99.90;;;;;;6277373;22;20049;-85
2023/03/03 09:36:54;;;;;;;18.00;10.55;;;4.40;99.90;;;;;;6277579;22;20019;-85
2023/03/03 09:39:25;;;;;;;15.60;9.60;;;4.40;99.90;;;;;;6304874;22;20126;-85
2023/03/03 09:41:57;;;;;;;12.23;5.95;;;4.40;99.90;;;;;;6304695;22;20371;-85
2023/03/03 09:44:59;;;;;;;11.75;4.75;;;4.30;99.90;;;;;;6276890;22;20440;-85
2023/03/03 09:47:34;;;;;;;18.02;10.95;;;4.30;99.90;;;;;;6304467;22;20018;-85
2023/03/03 09:50:09;;;;;;;11.10;5.60;;;4.30;99.90;;;;;;6277472;22;20059;-85
2023/03/03 09:52:53;;;;;;;11.55;5.40;;;4.30;99.90;;;;;;6304441;22;20094;-86
2023/03/03 09:55:35;;;;;;;11.60;5.45;;;4.30;99.90;;;;;;6276491;22;20019;-85
2023/03/03 09:58:36;;;;;;;17.80;11.00;;;4.30;99.90;;;;;;6305311;22;20050;-85
2023/03/03 10:01:25;;;;;;;13.20;5.93;;;4.40;99.90;;;;;;6305200;22;20019;-85
2023/03/03 10:04:10;;;;;;;12.38;5.75;;;4.30;99.90;;;;;;6277284;22;20022;-85
2023/03/03 10:06:47;;;;;;;12.07;5.63;;;4.40;99.90;;;;;;6304795;22;20451;-85
2023/03/03 10:09:25;;;;;;;14.88;9.02;;;4.50;99.90;;;;;;6277286;22;20016;-85
2023/03/03 10:12:09;;;;;;;13.90;6.68;;;4.60;99.90;;;;;;6304055;22;20019;-85
2023/03/03 10:14:50;;;;;;;18.00;10.77;;;4.60;99.90;;;;;;6304852;22;20026;-86
2023/03/03 10:17:34;;;;;;;11.77;5.25;;;4.70;99.90;;;;;;6277442;22;20383;-85
2023/03/03 10:20:07;;;;;;;14.85;10.07;;;4.70;99.90;;;;;;6305617;22;20015;-86
2023/03/03 10:22:59;;;;;;;16.15;11.02;;;4.80;99.90;;;;;;6304614;22;20011;-85
2023/03/03 10:25:30;;;;;;;12.95;6.82;;;4.90;99.90;;;;;;6276282;22;20019;-85
2023/03/03 10:28:29;;;;;;;15.38;11.77;;;4.90;99.90;;;;;;6304871;22;20061;-85
2023/03/03 10:31:15;;;;;;;18.15;12.30;;;5.00;99.90;;;;;;6277181;22;20011;-86
2023/03/03 10:34:05;;;;;;;12.95;6.93;;;5.00;99.90;;;;;;6304727;22;20065;-86
2023/03/03 10:36:52;;;;;;;14.95;10.80;;;5.10;99.90;;;;;;6276630;22;20505;-86
2023/03/03 10:39:43;;;;;;;17.33;11.98;;;5.20;99.90;;;;;;6276294;22;20349;-86
2023/03/03 10:42:37;;;;;;;14.73;6.72;;;5.30;99.90;;;;;;6277087;22;20061;-86
2023/03/03 10:45:38;;;;;;;16.67;10.77;;;5.40;99.90;;;;;;6304759;22;20014;-86
2023/03/03 10:48:37;;;;;;;13.33;6.60;;;5.50;99.90;;;;;;6304604;22;20114;-85
2023/03/03 10:51:26;;;;;;;14.32;10.18;;;5.60;99.90;;;;;;6304581;22;20280;-86
2023/03/03 10:54:33;;;;;;;14.02;10.23;;;5.70;99.90;;;;;;6276578;22;20015;-86
2023/03/03 10:57:24;;;;;;;12.18;8.90;;;5.80;99.90;;;;;;6193970;22;20026;-86
2023/03/03 11:00:15;;;;;;;11.25;6.22;;;5.90;99.90;;;;;;6304141;22;20067;-86
2023/03/03 11:02:53;;;;;;;13.35;8.65;;;5.90;99.90;;;;;;6303879;22;20012;-86
2023/03/03 11:05:34;;;;;;;11.10;8.15;;;6.00;99.90;;;;;;6304119;22;20064;-86
2023/03/03 11:08:07;;;;;;;10.88;5.55;;;6.10;99.90;;;;;;6303912;22;20008;-86
2023/03/03 11:10:57;;;;;;;15.93;9.50;;;6.10;99.90;;;;;;6276045;22;20025;-86
2023/03/03 11:13:53;;;;;;;13.07;8.45;;;6.20;99.90;;;;;;6276120;22;20435;-85
2023/03/03 11:16:33;;;;;;;13.48;8.80;;;6.20;99.90;;;;;;6303919;22;20018;-86
2023/03/03 11:19:00;;;;;;;13.82;8.57;;;6.30;99.90;;;;;;6304384;22;20106;-86
2023/03/03 11:21:58;;;;;;;12.02;7.60;;;6.40;99.90;;;;;;6275881;22;20019;-88
2023/03/03 11:24:55;;;;;;;10.80;7.38;;;6.50;99.90;;;;;;6273125;22;20092;-88
2023/03/03 11:27:31;;;;;;;10.32;6.88;;;6.50;99.90;;;;;;6272042;22;20129;-82
2023/03/03 11:30:15;;;;;;;11.30;6.72;;;6.70;99.90;;;;;;6275692;22;20334;-84
2023/03/03 11:33:00;;;;;;;10.23;6.63;;;6.70;99.90;;;;;;6302621;22;20365;-87
2023/03/03 11:35:51;;;;;;;10.85;6.22;;;6.80;99.90;;;;;;6302084;22;20011;-88
2023/03/03 11:38:22;;;;;;;8.90;4.38;;;6.90;99.90;;;;;;6276264;22;20051;-89
2023/03/03 11:41:03;;;;;;;;;;;6.80;99.90;;;;;;6255352;22;20090;-93
2023/03/03 11:43:39;;;;;;;10.63;6.50;;;6.80;99.90;;;;;;6277894;22;19918;-89
2023/03/03 11:46:15;;;;;;;10.48;6.28;;;6.90;99.90;;;;;;6307531;22;20782;-88
2023/03/03 11:48:54;;;;;;;11.95;6.60;;;7.00;99.90;;;;;;6279737;22;20015;-89
2023/03/03 11:51:42;;;;;;;10.00;5.80;;;7.10;99.90;;;;;;6252998;22;20022;-88
2023/03/03 11:54:48;;;;;;;9.90;5.85;;;7.20;99.90;;;;;;6279959;22;20057;-89
2023/03/03 11:57:31;;;;;;;9.43;5.80;;;7.30;99.90;;;;;;6203284;22;20148;-89
2023/03/03 12:00:20;;;;;;;11.18;5.65;;;7.30;99.90;;;;;;6279524;22;20132;-89
2023/03/03 12:03:09;;;;;;;8.93;5.57;;;7.40;99.90;;;;;;6151464;23;20018;-90
2023/03/03 12:05:35;;;;;;;23.27;18.60;;;7.50;99.90;;;;;;6124691;23;20045;-87
2023/03/03 12:08:10;;;;;;;9.68;4.45;;;7.70;99.90;;;;;;6127432;23;20455;-87
2023/03/03 12:10:44;;;;;;;152.48;140.05;;;7.80;99.90;;;;;;6127898;23;20022;-88
2023/03/03 12:13:37;;;;;;;9.15;5.30;;;7.90;99.90;;;;;;6127001;23;20018;-88
2023/03/03 12:16:18;;;;;;;8.70;3.20;;;7.90;99.90;;;;;;6137473;23;20020;-92
2023/03/03 12:18:56;;;;;;;7.68;3.70;;;8.00;99.90;;;;;;6104516;23;20045;-90
2023/03/03 12:21:59;;;;;;;8.63;3.60;;;8.00;99.90;;;;;;6125352;23;20044;-85
2023/03/03 12:24:45;;;;;;;9.18;3.10;;;8.00;99.90;;;;;;6127041;23;20013;-87
2023/03/03 12:27:30;;;;;;;8.60;3.80;;;8.00;99.90;;;;;;6151951;23;20018;-84
2023/03/03 12:30:11;;;;;;;7.88;3.00;;;8.00;99.90;;;;;;6151860;23;20014;-85
2023/03/03 12:32:42;;;;;;;8.20;3.35;;;8.00;99.90;;;;;;6151162;23;20021;-85
2023/03/03 12:35:23;;;;;;;;;;;8.10;99.90;;;;;;6148558;23;20585;-84
2023/03/03 12:38:00;;;;;;;6.38;2.58;;;8.20;99.90;;;;;;6127803;23;19920;-82
2023/03/03 12:40:33;;;;;;;6.07;2.70;;;8.30;99.90;;;;;;6243363;22;20015;-85
2023/03/03 12:43:06;;;;;;;8.65;2.70;;;8.40;99.90;;;;;;6279780;22;20108;-88
2023/03/03 12:45:43;;;;;;;8.40;2.50;;;8.40;99.90;;;;;;6306067;22;20708;-87
2023/03/03 12:48:14;;;;;;;6.13;2.17;;;8.30;99.90;;;;;;6279722;22;20019;-90
2023/03/03 12:50:54;;;;;;;4.95;2.08;;;8.30;99.90;;;;;;6274887;22;20114;-91
2023/03/03 12:53:34;;;;;;;5.85;2.17;;;8.30;99.90;;;;;;6277706;22;20015;-91
2023/03/03 12:56:19;;;;;;;6.45;2.30;;;8.40;99.90;;;;;;6305543;22;20412;-90
2023/03/03 12:59:10;;;;;;;6.30;2.40;;;8.20;99.90;;;;;;6305785;22;20018;-91
2023/03/03 13:01:39;;;;;;;6.28;2.70;;;8.20;99.90;;;;;;6277448;22;20045;-91
2023/03/03 13:04:26;;;;;;;6.15;2.58;;;8.20;99.90;;;;;;6277659;22;20314;-91
2023/03/03 13:06:56;;;;;;;6.70;2.70;;;8.20;99.90;;;;;;6303871;22;20043;-91